sensor_id;sensor_type;location;lat;lon;timestamp;pressure;altitude;pressure_sealevel;temperature;humidity
46782;BME280;32541;46.298;11.506;2022-07-03T00:01:20;90066.81;;;18.56;74.01
46782;BME280;32541;46.298;11.506;2022-07-03T00:03:45;90063.19;;;18.53;73.73
46782;BME280;32541;46.298;11.506;2022-07-03T00:06:11;90065.59;;;18.59;73.29
46782;BME280;32541;46.298;11.506;2022-07-03T00:08:37;90059.28;;;18.58;73.38
46782;BME280;32541;46.298;11.506;2022-07-03T00:11:03;90064.75;;;18.56;73.58
46782;BME280;32541;46.298;11.506;2022-07-03T00:13:28;90055.22;;;18.48;73.87
46782;BME280;32541;46.298;11.506;2022-07-03T00:15:54;90061.84;;;18.41;74.04
46782;BME280;32541;46.298;11.506;2022-07-03T00:18:19;90064.19;;;18.46;73.82
46782;BME280;32541;46.298;11.506;2022-07-03T00:20:47;90067.41;;;18.41;74.45
46782;BME280;32541;46.298;11.506;2022-07-03T00:23:16;90062.84;;;18.47;74.06
46782;BME280;32541;46.298;11.506;2022-07-03T00:25:43;90066.69;;;18.40;74.15
46782;BME280;32541;46.298;11.506;2022-07-03T00:28:08;90064.81;;;18.31;74.60
46782;BME280;32541;46.298;11.506;2022-07-03T00:30:34;90062.53;;;18.41;74.31
46782;BME280;32541;46.298;11.506;2022-07-03T00:33:04;90055.22;;;18.34;74.67
46782;BME280;32541;46.298;11.506;2022-07-03T00:35:35;90057.59;;;18.26;74.66
46782;BME280;32541;46.298;11.506;2022-07-03T00:38:02;90060.06;;;18.20;75.10
46782;BME280;32541;46.298;11.506;2022-07-03T00:40:29;90056.13;;;18.25;74.75
46782;BME280;32541;46.298;11.506;2022-07-03T00:42:55;90058.81;;;18.23;74.77
46782;BME280;32541;46.298;11.506;2022-07-03T00:45:21;90056.75;;;18.23;74.73
46782;BME280;32541;46.298;11.506;2022-07-03T00:47:47;90057.38;;;18.22;74.76
46782;BME280;32541;46.298;11.506;2022-07-03T00:50:13;90060.84;;;18.09;75.59
46782;BME280;32541;46.298;11.506;2022-07-03T00:52:46;90061.88;;;18.02;75.80
46782;BME280;32541;46.298;11.506;2022-07-03T00:55:15;90059.69;;;18.00;75.64
46782;BME280;32541;46.298;11.506;2022-07-03T00:57:45;90052.69;;;17.99;75.79
46782;BME280;32541;46.298;11.506;2022-07-03T01:00:12;90054.84;;;18.01;75.72
46782;BME280;32541;46.298;11.506;2022-07-03T01:02:51;90059.19;;;18.04;75.48
46782;BME280;32541;46.298;11.506;2022-07-03T01:05:32;90064.84;;;17.92;76.34
46782;BME280;32541;46.298;11.506;2022-07-03T01:24:53;90050.13;;;18.03;76.21
46782;BME280;32541;46.298;11.506;2022-07-03T01:27:23;90051.97;;;17.99;76.60
46782;BME280;32541;46.298;11.506;2022-07-03T01:30:10;90050.81;;;17.90;76.95
46782;BME280;32541;46.298;11.506;2022-07-03T01:32:41;90046.59;;;17.89;76.73
46782;BME280;32541;46.298;11.506;2022-07-03T01:35:09;90047.91;;;17.88;76.73
46782;BME280;32541;46.298;11.506;2022-07-03T01:37:39;90057.50;;;17.85;76.83
46782;BME280;32541;46.298;11.506;2022-07-03T01:40:05;90049.28;;;17.87;76.90
46782;BME280;32541;46.298;11.506;2022-07-03T01:42:35;90049.53;;;17.80;77.43
46782;BME280;32541;46.298;11.506;2022-07-03T01:45:05;90052.25;;;17.91;76.80
46782;BME280;32541;46.298;11.506;2022-07-03T01:47:34;90045.25;;;17.90;76.90
46782;BME280;32541;46.298;11.506;2022-07-03T01:50:00;90048.41;;;17.85;77.24
46782;BME280;32541;46.298;11.506;2022-07-03T01:52:29;90053.97;;;17.85;77.66
46782;BME280;32541;46.298;11.506;2022-07-03T01:54:59;90044.53;;;17.90;77.43
46782;BME280;32541;46.298;11.506;2022-07-03T01:57:34;90041.75;;;17.90;76.90
46782;BME280;32541;46.298;11.506;2022-07-03T02:00:03;90042.66;;;17.81;76.82
46782;BME280;32541;46.298;11.506;2022-07-03T02:02:33;90038.31;;;17.77;77.04
46782;BME280;32541;46.298;11.506;2022-07-03T02:05:36;90046.25;;;17.83;76.62
46782;BME280;32541;46.298;11.506;2022-07-03T02:08:25;90031.38;;;17.65;76.90
46782;BME280;32541;46.298;11.506;2022-07-03T02:11:17;90032.97;;;17.82;76.40
46782;BME280;32541;46.298;11.506;2022-07-03T02:16:20;90026.97;;;17.48;77.76
46782;BME280;32541;46.298;11.506;2022-07-03T02:19:02;90026.84;;;17.46;77.75
46782;BME280;32541;46.298;11.506;2022-07-03T02:21:28;90033.00;;;17.56;76.76
46782;BME280;32541;46.298;11.506;2022-07-03T02:26:41;90035.38;;;17.37;77.86
46782;BME280;32541;46.298;11.506;2022-07-03T02:29:12;90036.06;;;17.37;77.94
46782;BME280;32541;46.298;11.506;2022-07-03T02:31:56;90046.22;;;17.44;77.76
46782;BME280;32541;46.298;11.506;2022-07-03T02:34:23;90040.94;;;17.37;77.82
46782;BME280;32541;46.298;11.506;2022-07-03T02:36:51;90035.19;;;17.21;78.08
46782;BME280;32541;46.298;11.506;2022-07-03T02:42:04;90033.97;;;17.24;77.95
46782;BME280;32541;46.298;11.506;2022-07-03T02:44:43;90037.63;;;17.15;78.54
46782;BME280;32541;46.298;11.506;2022-07-03T02:50:07;90045.88;;;17.13;78.65
46782;BME280;32541;46.298;11.506;2022-07-03T02:55:13;90049.75;;;17.08;78.88
46782;BME280;32541;46.298;11.506;2022-07-03T02:57:50;90056.31;;;17.01;79.59
46782;BME280;32541;46.298;11.506;2022-07-03T03:00:18;90055.56;;;17.00;79.51
46782;BME280;32541;46.298;11.506;2022-07-03T03:10:47;90064.16;;;16.93;79.72
46782;BME280;32541;46.298;11.506;2022-07-03T03:13:15;90062.38;;;16.86;80.47
46782;BME280;32541;46.298;11.506;2022-07-03T03:16:16;90063.34;;;16.79;80.95
46782;BME280;32541;46.298;11.506;2022-07-03T03:18:42;90058.03;;;16.83;80.40
46782;BME280;32541;46.298;11.506;2022-07-03T03:21:13;90059.16;;;16.78;80.57
46782;BME280;32541;46.298;11.506;2022-07-03T03:23:47;90061.94;;;16.78;80.48
46782;BME280;32541;46.298;11.506;2022-07-03T03:26:26;90062.53;;;16.64;80.78
46782;BME280;32541;46.298;11.506;2022-07-03T03:28:58;90065.44;;;16.66;81.31
46782;BME280;32541;46.298;11.506;2022-07-03T03:31:24;90069.19;;;16.59;81.84
46782;BME280;32541;46.298;11.506;2022-07-03T03:33:50;90062.91;;;16.47;82.89
46782;BME280;32541;46.298;11.506;2022-07-03T03:36:18;90067.84;;;16.49;82.63
46782;BME280;32541;46.298;11.506;2022-07-03T03:38:44;90062.19;;;16.58;81.85
46782;BME280;32541;46.298;11.506;2022-07-03T03:41:10;90059.53;;;16.60;81.76
46782;BME280;32541;46.298;11.506;2022-07-03T03:43:36;90064.59;;;16.52;82.16
46782;BME280;32541;46.298;11.506;2022-07-03T03:46:02;90056.53;;;16.56;81.84
46782;BME280;32541;46.298;11.506;2022-07-03T03:48:29;90050.69;;;16.52;81.83
46782;BME280;32541;46.298;11.506;2022-07-03T03:50:56;90049.88;;;16.50;81.86
46782;BME280;32541;46.298;11.506;2022-07-03T03:53:21;90056.25;;;16.52;81.80
46782;BME280;32541;46.298;11.506;2022-07-03T03:58:23;90062.19;;;16.58;81.38
46782;BME280;32541;46.298;11.506;2022-07-03T04:00:48;90061.56;;;16.48;81.79
46782;BME280;32541;46.298;11.506;2022-07-03T04:03:14;90062.53;;;16.53;81.83
46782;BME280;32541;46.298;11.506;2022-07-03T04:05:39;90064.34;;;16.48;81.66
46782;BME280;32541;46.298;11.506;2022-07-03T04:08:04;90067.84;;;16.49;81.93
46782;BME280;32541;46.298;11.506;2022-07-03T04:10:30;90068.56;;;16.49;82.03
46782;BME280;32541;46.298;11.506;2022-07-03T04:12:55;90070.63;;;16.49;82.34
46782;BME280;32541;46.298;11.506;2022-07-03T04:15:20;90065.44;;;16.43;82.96
46782;BME280;32541;46.298;11.506;2022-07-03T04:17:50;90066.63;;;16.52;82.37
46782;BME280;32541;46.298;11.506;2022-07-03T04:20:16;90066.75;;;16.42;83.14
46782;BME280;32541;46.298;11.506;2022-07-03T04:22:41;90061.56;;;16.48;83.31
46782;BME280;32541;46.298;11.506;2022-07-03T04:25:07;90063.00;;;16.49;83.00
46782;BME280;32541;46.298;11.506;2022-07-03T04:27:32;90065.19;;;16.51;83.05
46782;BME280;32541;46.298;11.506;2022-07-03T04:29:58;90067.09;;;16.48;83.40
46782;BME280;32541;46.298;11.506;2022-07-03T04:32:23;90067.72;;;16.47;83.43
46782;BME280;32541;46.298;11.506;2022-07-03T04:34:48;90068.22;;;16.43;83.62
46782;BME280;32541;46.298;11.506;2022-07-03T04:37:14;90069.88;;;16.48;83.36
46782;BME280;32541;46.298;11.506;2022-07-03T04:39:39;90070.03;;;16.50;83.19
46782;BME280;32541;46.298;11.506;2022-07-03T04:42:05;90069.88;;;16.48;83.30
46782;BME280;32541;46.298;11.506;2022-07-03T04:44:30;90072.56;;;16.58;83.23
46782;BME280;32541;46.298;11.506;2022-07-03T04:46:55;90069.69;;;16.56;83.36
46782;BME280;32541;46.298;11.506;2022-07-03T04:49:21;90077.63;;;16.61;83.29
46782;BME280;32541;46.298;11.506;2022-07-03T04:51:46;90072.69;;;16.60;83.48
46782;BME280;32541;46.298;11.506;2022-07-03T04:54:11;90077.16;;;16.65;83.34
46782;BME280;32541;46.298;11.506;2022-07-03T04:56:37;90072.81;;;16.62;83.69
46782;BME280;32541;46.298;11.506;2022-07-03T04:59:02;90074.59;;;16.69;83.46
46782;BME280;32541;46.298;11.506;2022-07-03T05:01:27;90075.47;;;16.72;83.60
46782;BME280;32541;46.298;11.506;2022-07-03T05:03:53;90078.34;;;16.74;83.99
46782;BME280;32541;46.298;11.506;2022-07-03T05:06:18;90078.44;;;16.76;84.06
46782;BME280;32541;46.298;11.506;2022-07-03T05:08:44;90076.88;;;16.84;83.43
46782;BME280;32541;46.298;11.506;2022-07-03T05:11:09;90082.22;;;16.69;84.01
46782;BME280;32541;46.298;11.506;2022-07-03T05:13:34;90078.00;;;16.67;84.39
46782;BME280;32541;46.298;11.506;2022-07-03T05:16:00;90087.63;;;16.66;84.80
46782;BME280;32541;46.298;11.506;2022-07-03T05:18:25;90078.34;;;16.74;84.48
46782;BME280;32541;46.298;11.506;2022-07-03T05:20:50;90083.91;;;16.74;84.61
46782;BME280;32541;46.298;11.506;2022-07-03T05:23:16;90082.94;;;16.69;85.03
46782;BME280;32541;46.298;11.506;2022-07-03T05:25:41;90088.25;;;16.65;86.00
46782;BME280;32541;46.298;11.506;2022-07-03T05:28:07;90077.38;;;16.69;85.78
46782;BME280;32541;46.298;11.506;2022-07-03T05:30:32;90072.53;;;16.70;85.75
46782;BME280;32541;46.298;11.506;2022-07-03T05:32:58;90067.22;;;16.74;85.84
46782;BME280;32541;46.298;11.506;2022-07-03T05:35:23;90073.16;;;16.80;85.27
46782;BME280;32541;46.298;11.506;2022-07-03T05:37:48;90070.56;;;16.84;85.63
46782;BME280;32541;46.298;11.506;2022-07-03T05:40:14;90070.94;;;16.90;85.72
46782;BME280;32541;46.298;11.506;2022-07-03T05:42:40;90065.88;;;16.86;85.53
46782;BME280;32541;46.298;11.506;2022-07-03T05:45:06;90062.59;;;16.90;85.24
46782;BME280;32541;46.298;11.506;2022-07-03T05:47:31;90065.16;;;16.86;86.22
46782;BME280;32541;46.298;11.506;2022-07-03T05:49:57;90063.22;;;16.88;86.15
46782;BME280;32541;46.298;11.506;2022-07-03T05:52:22;90057.16;;;16.92;86.18
46782;BME280;32541;46.298;11.506;2022-07-03T05:54:48;90057.75;;;16.90;86.10
46782;BME280;32541;46.298;11.506;2022-07-03T05:57:13;90054.78;;;16.86;86.61
46782;BME280;32541;46.298;11.506;2022-07-03T05:59:39;90054.16;;;16.88;86.68
46782;BME280;32541;46.298;11.506;2022-07-03T06:02:05;90056.69;;;16.95;86.23
46782;BME280;32541;46.298;11.506;2022-07-03T06:04:30;90062.34;;;16.97;85.57
46782;BME280;32541;46.298;11.506;2022-07-03T06:06:56;90068.63;;;16.98;85.93
46782;BME280;32541;46.298;11.506;2022-07-03T06:09:22;90060.88;;;16.96;86.33
46782;BME280;32541;46.298;11.506;2022-07-03T06:11:47;90064.00;;;17.02;86.16
46782;BME280;32541;46.298;11.506;2022-07-03T06:14:13;90060.84;;;17.08;85.85
46782;BME280;32541;46.298;11.506;2022-07-03T06:16:39;90051.44;;;17.13;85.77
46782;BME280;32541;46.298;11.506;2022-07-03T06:19:04;90057.66;;;17.25;85.65
46782;BME280;32541;46.298;11.506;2022-07-03T06:21:31;90056.56;;;17.30;85.77
46782;BME280;32541;46.298;11.506;2022-07-03T06:23:56;90052.84;;;17.51;85.28
46782;BME280;32541;46.298;11.506;2022-07-03T06:26:21;90053.91;;;17.57;85.68
46782;BME280;32541;46.298;11.506;2022-07-03T06:28:47;90060.31;;;17.60;85.62
46782;BME280;32541;46.298;11.506;2022-07-03T06:31:12;90058.47;;;17.64;84.22
46782;BME280;32541;46.298;11.506;2022-07-03T06:33:38;90062.41;;;17.73;84.38
46782;BME280;32541;46.298;11.506;2022-07-03T06:36:03;90056.06;;;17.84;85.09
46782;BME280;32541;46.298;11.506;2022-07-03T06:38:29;90057.97;;;18.07;85.53
46782;BME280;32541;46.298;11.506;2022-07-03T06:40:54;90053.56;;;18.29;84.65
46782;BME280;32541;46.298;11.506;2022-07-03T06:43:20;90048.91;;;18.47;83.17
46782;BME280;32541;46.298;11.506;2022-07-03T06:45:45;90053.19;;;18.62;80.72
46782;BME280;32541;46.298;11.506;2022-07-03T06:48:10;90050.63;;;18.79;79.45
46782;BME280;32541;46.298;11.506;2022-07-03T06:50:36;90055.53;;;18.95;78.98
46782;BME280;32541;46.298;11.506;2022-07-03T06:53:01;90050.97;;;19.15;77.02
46782;BME280;32541;46.298;11.506;2022-07-03T06:55:27;90057.31;;;19.31;75.47
46782;BME280;32541;46.298;11.506;2022-07-03T06:57:52;90054.53;;;19.45;75.26
46782;BME280;32541;46.298;11.506;2022-07-03T07:00:18;90044.84;;;19.61;74.38
46782;BME280;32541;46.298;11.506;2022-07-03T07:02:44;90045.50;;;19.75;73.44
46782;BME280;32541;46.298;11.506;2022-07-03T07:05:09;90046.28;;;19.91;73.82
46782;BME280;32541;46.298;11.506;2022-07-03T07:07:34;90041.97;;;20.04;71.84
46782;BME280;32541;46.298;11.506;2022-07-03T07:10:00;90046.31;;;20.23;71.16
46782;BME280;32541;46.298;11.506;2022-07-03T07:12:25;90040.38;;;20.46;70.02
46782;BME280;32541;46.298;11.506;2022-07-03T07:14:51;90031.25;;;20.61;69.58
46782;BME280;32541;46.298;11.506;2022-07-03T07:17:16;90032.69;;;20.78;69.00
46782;BME280;32541;46.298;11.506;2022-07-03T07:19:44;90032.66;;;20.93;68.94
46782;BME280;32541;46.298;11.506;2022-07-03T07:22:10;90025.06;;;21.29;67.42
46782;BME280;32541;46.298;11.506;2022-07-03T07:24:35;90028.38;;;21.41;67.30
46782;BME280;32541;46.298;11.506;2022-07-03T07:27:01;90027.84;;;21.12;67.65
46782;BME280;32541;46.298;11.506;2022-07-03T07:29:26;90028.34;;;21.24;67.84
46782;BME280;32541;46.298;11.506;2022-07-03T07:31:51;90027.09;;;21.44;66.44
46782;BME280;32541;46.298;11.506;2022-07-03T07:34:17;90022.16;;;21.60;64.77
46782;BME280;32541;46.298;11.506;2022-07-03T07:36:42;90015.66;;;21.74;64.53
46782;BME280;32541;46.298;11.506;2022-07-03T07:39:08;90012.66;;;22.03;63.30
46782;BME280;32541;46.298;11.506;2022-07-03T07:41:36;90015.19;;;22.14;65.45
46782;BME280;32541;46.298;11.506;2022-07-03T07:44:01;90018.50;;;22.29;63.21
46782;BME280;32541;46.298;11.506;2022-07-03T07:46:26;90010.56;;;22.41;62.31
46782;BME280;32541;46.298;11.506;2022-07-03T07:48:52;90000.91;;;22.83;61.51
46782;BME280;32541;46.298;11.506;2022-07-03T07:51:17;89996.84;;;22.88;60.38
46782;BME280;32541;46.298;11.506;2022-07-03T07:53:43;89994.69;;;23.06;59.74
46782;BME280;32541;46.298;11.506;2022-07-03T07:56:09;90000.75;;;23.20;59.84
46782;BME280;32541;46.298;11.506;2022-07-03T07:58:35;89999.81;;;23.34;58.00
46782;BME280;32541;46.298;11.506;2022-07-03T08:01:01;89989.00;;;23.46;53.88
46782;BME280;32541;46.298;11.506;2022-07-03T08:03:46;89987.78;;;23.09;55.50
46782;BME280;32541;46.298;11.506;2022-07-03T08:06:30;89990.78;;;23.37;55.92
46782;BME280;32541;46.298;11.506;2022-07-03T08:08:57;89988.38;;;23.28;57.09
46782;BME280;32541;46.298;11.506;2022-07-03T08:11:26;89985.56;;;23.28;56.52
46782;BME280;32541;46.298;11.506;2022-07-03T08:13:52;89982.94;;;23.53;54.12
46782;BME280;32541;46.298;11.506;2022-07-03T08:16:18;89981.66;;;23.80;53.81
46782;BME280;32541;46.298;11.506;2022-07-03T08:18:44;89980.88;;;23.99;53.91
46782;BME280;32541;46.298;11.506;2022-07-03T08:21:09;89980.25;;;24.03;53.78
46782;BME280;32541;46.298;11.506;2022-07-03T08:23:36;89984.66;;;24.31;54.13
46782;BME280;32541;46.298;11.506;2022-07-03T08:26:02;89990.91;;;24.54;53.39
46782;BME280;32541;46.298;11.506;2022-07-03T08:28:28;89978.31;;;24.55;53.90
46782;BME280;32541;46.298;11.506;2022-07-03T08:30:54;89991.75;;;24.82;56.35
46782;BME280;32541;46.298;11.506;2022-07-03T08:33:20;89976.88;;;25.03;54.49
46782;BME280;32541;46.298;11.506;2022-07-03T08:35:47;89977.47;;;25.27;53.72
46782;BME280;32541;46.298;11.506;2022-07-03T08:38:13;89979.69;;;25.03;52.23
46782;BME280;32541;46.298;11.506;2022-07-03T08:40:40;89981.75;;;24.53;53.21
46782;BME280;32541;46.298;11.506;2022-07-03T08:43:06;89985.69;;;24.18;54.47
46782;BME280;32541;46.298;11.506;2022-07-03T08:45:33;89986.38;;;24.66;56.35
46782;BME280;32541;46.298;11.506;2022-07-03T08:48:02;89970.56;;;25.05;51.65
46782;BME280;32541;46.298;11.506;2022-07-03T08:50:32;89976.97;;;24.81;52.79
46782;BME280;32541;46.298;11.506;2022-07-03T08:52:59;89983.59;;;24.92;52.42
46782;BME280;32541;46.298;11.506;2022-07-03T08:55:25;89986.19;;;24.60;50.83
46782;BME280;32541;46.298;11.506;2022-07-03T08:57:50;89980.44;;;24.56;51.66
46782;BME280;32541;46.298;11.506;2022-07-03T09:00:18;89980.34;;;24.78;51.08
46782;BME280;32541;46.298;11.506;2022-07-03T09:02:45;89975.38;;;25.00;51.19
46782;BME280;32541;46.298;11.506;2022-07-03T09:05:12;89965.66;;;25.33;49.68
46782;BME280;32541;46.298;11.506;2022-07-03T09:07:39;89968.44;;;25.31;51.40
46782;BME280;32541;46.298;11.506;2022-07-03T09:10:11;89963.13;;;25.71;52.09
46782;BME280;32541;46.298;11.506;2022-07-03T09:12:38;89970.38;;;26.10;49.25
46782;BME280;32541;46.298;11.506;2022-07-03T09:15:06;89969.81;;;25.58;48.54
46782;BME280;32541;46.298;11.506;2022-07-03T09:17:32;89973.19;;;25.80;50.41
46782;BME280;32541;46.298;11.506;2022-07-03T09:19:58;89969.88;;;26.19;49.78
46782;BME280;32541;46.298;11.506;2022-07-03T09:22:26;89968.56;;;26.56;49.98
46782;BME280;32541;46.298;11.506;2022-07-03T09:24:54;89964.06;;;26.77;48.97
46782;BME280;32541;46.298;11.506;2022-07-03T09:27:22;89963.38;;;27.12;48.85
46782;BME280;32541;46.298;11.506;2022-07-03T09:30:08;89962.47;;;27.41;47.19
46782;BME280;32541;46.298;11.506;2022-07-03T09:35:17;89948.69;;;28.03;46.82
46782;BME280;32541;46.298;11.506;2022-07-03T09:40:25;89942.41;;;28.57;44.19
46782;BME280;32541;46.298;11.506;2022-07-03T09:43:06;89949.66;;;28.18;42.14
46782;BME280;32541;46.298;11.506;2022-07-03T09:48:22;89944.94;;;27.07;42.47
46782;BME280;32541;46.298;11.506;2022-07-03T09:50:47;89945.56;;;26.70;42.97
46782;BME280;32541;46.298;11.506;2022-07-03T09:53:13;89947.25;;;26.81;41.97
46782;BME280;32541;46.298;11.506;2022-07-03T09:55:38;89939.88;;;27.01;43.43
46782;BME280;32541;46.298;11.506;2022-07-03T09:58:03;89940.00;;;27.45;44.45
46782;BME280;32541;46.298;11.506;2022-07-03T10:00:31;89938.72;;;27.98;46.38
46782;BME280;32541;46.298;11.506;2022-07-03T10:03:08;89941.00;;;28.06;41.87
46782;BME280;32541;46.298;11.506;2022-07-03T10:05:35;89928.31;;;27.65;41.51
46782;BME280;32541;46.298;11.506;2022-07-03T10:08:09;89928.28;;;27.63;41.06
46782;BME280;32541;46.298;11.506;2022-07-03T10:10:38;89942.41;;;28.07;42.15
46782;BME280;32541;46.298;11.506;2022-07-03T10:13:05;89929.56;;;28.48;43.03
46782;BME280;32541;46.298;11.506;2022-07-03T10:15:32;89928.72;;;28.89;43.06
46782;BME280;32541;46.298;11.506;2022-07-03T10:17:59;89920.50;;;29.15;43.86
46782;BME280;32541;46.298;11.506;2022-07-03T10:20:49;89922.13;;;29.35;43.60
46782;BME280;32541;46.298;11.506;2022-07-03T10:23:16;89931.59;;;29.61;42.27
46782;BME280;32541;46.298;11.506;2022-07-03T10:25:42;89929.91;;;29.34;39.17
46782;BME280;32541;46.298;11.506;2022-07-03T10:28:11;89924.59;;;28.44;36.89
46782;BME280;32541;46.298;11.506;2022-07-03T10:30:37;89921.34;;;28.66;39.03
46782;BME280;32541;46.298;11.506;2022-07-03T10:33:03;89918.88;;;28.96;37.59
46782;BME280;32541;46.298;11.506;2022-07-03T10:35:33;89927.16;;;29.40;37.17
46782;BME280;32541;46.298;11.506;2022-07-03T10:43:37;89918.13;;;28.94;37.09
46782;BME280;32541;46.298;11.506;2022-07-03T10:46:23;89922.50;;;28.01;38.24
46782;BME280;32541;46.298;11.506;2022-07-03T10:51:29;89915.84;;;28.26;38.40
46782;BME280;32541;46.298;11.506;2022-07-03T11:02:21;89920.28;;;28.41;36.48
46782;BME280;32541;46.298;11.506;2022-07-03T11:07:28;89904.41;;;28.18;35.29
46782;BME280;32541;46.298;11.506;2022-07-03T11:12:53;89905.16;;;28.73;36.60
46782;BME280;32541;46.298;11.506;2022-07-03T11:15:27;89895.13;;;29.24;38.18
46782;BME280;32541;46.298;11.506;2022-07-03T11:21:20;89896.69;;;29.37;34.14
46782;BME280;32541;46.298;11.506;2022-07-03T11:23:23;89887.13;;;29.78;34.64
46782;BME280;32541;46.298;11.506;2022-07-03T11:25:53;89889.91;;;29.76;34.10
46782;BME280;32541;46.298;11.506;2022-07-03T11:41:20;89874.25;;;29.67;33.97
46782;BME280;32541;46.298;11.506;2022-07-03T11:43:54;89875.25;;;29.21;33.11
46782;BME280;32541;46.298;11.506;2022-07-03T11:46:25;89874.09;;;28.81;30.86
46782;BME280;32541;46.298;11.506;2022-07-03T11:51:29;89875.53;;;28.82;29.67
46782;BME280;32541;46.298;11.506;2022-07-03T11:53:54;89868.53;;;28.89;29.67
46782;BME280;32541;46.298;11.506;2022-07-03T11:56:20;89869.56;;;29.19;31.34
46782;BME280;32541;46.298;11.506;2022-07-03T11:58:56;89866.38;;;28.87;29.69
46782;BME280;32541;46.298;11.506;2022-07-03T12:03:48;89849.69;;;29.96;34.72
46782;BME280;32541;46.298;11.506;2022-07-03T12:06:14;89863.38;;;30.27;29.66
46782;BME280;32541;46.298;11.506;2022-07-03T12:08:40;89862.94;;;30.81;29.74
46782;BME280;32541;46.298;11.506;2022-07-03T12:11:12;89862.63;;;30.23;29.44
46782;BME280;32541;46.298;11.506;2022-07-03T12:13:37;89854.25;;;30.47;32.48
46782;BME280;32541;46.298;11.506;2022-07-03T12:16:13;89860.09;;;30.83;29.16
46782;BME280;32541;46.298;11.506;2022-07-03T12:18:46;89857.38;;;31.12;30.84
46782;BME280;32541;46.298;11.506;2022-07-03T12:21:13;89854.56;;;31.36;30.52
46782;BME280;32541;46.298;11.506;2022-07-03T12:23:55;89850.34;;;31.49;28.69
46782;BME280;32541;46.298;11.506;2022-07-03T12:26:31;89857.47;;;31.82;30.08
46782;BME280;32541;46.298;11.506;2022-07-03T12:28:58;89843.25;;;31.86;30.11
46782;BME280;32541;46.298;11.506;2022-07-03T12:31:25;89853.19;;;32.20;29.25
46782;BME280;32541;46.298;11.506;2022-07-03T12:33:51;89853.16;;;31.35;26.91
46782;BME280;32541;46.298;11.506;2022-07-03T12:36:16;89850.03;;;30.52;27.43
46782;BME280;32541;46.298;11.506;2022-07-03T12:38:42;89847.19;;;30.50;28.14
46782;BME280;32541;46.298;11.506;2022-07-03T12:41:09;89848.06;;;29.72;27.50
46782;BME280;32541;46.298;11.506;2022-07-03T12:43:42;89840.41;;;29.85;27.36
46782;BME280;32541;46.298;11.506;2022-07-03T12:48:55;89848.38;;;30.15;29.72
46782;BME280;32541;46.298;11.506;2022-07-03T12:51:48;89835.94;;;29.60;27.54
46782;BME280;32541;46.298;11.506;2022-07-03T12:54:15;89814.09;;;29.78;28.71
46782;BME280;32541;46.298;11.506;2022-07-03T12:56:42;89812.19;;;30.11;26.35
46782;BME280;32541;46.298;11.506;2022-07-03T12:59:26;89819.19;;;29.94;26.49
46782;BME280;32541;46.298;11.506;2022-07-03T13:02:05;89811.56;;;30.27;27.32
46782;BME280;32541;46.298;11.506;2022-07-03T13:04:35;89816.00;;;30.62;28.08
46782;BME280;32541;46.298;11.506;2022-07-03T13:07:06;89812.59;;;30.98;27.61
46782;BME280;32541;46.298;11.506;2022-07-03T13:09:35;89811.94;;;31.30;29.43
46782;BME280;32541;46.298;11.506;2022-07-03T13:12:01;89812.69;;;31.49;28.89
46782;BME280;32541;46.298;11.506;2022-07-03T13:14:27;89803.44;;;31.66;28.32
46782;BME280;32541;46.298;11.506;2022-07-03T13:16:54;89810.47;;;30.99;26.97
46782;BME280;32541;46.298;11.506;2022-07-03T13:19:21;89811.13;;;30.85;28.71
46782;BME280;32541;46.298;11.506;2022-07-03T13:21:48;89816.34;;;29.94;27.95
46782;BME280;32541;46.298;11.506;2022-07-03T13:24:15;89813.56;;;30.02;26.45
46782;BME280;32541;46.298;11.506;2022-07-03T13:26:41;89804.53;;;30.34;26.98
46782;BME280;32541;46.298;11.506;2022-07-03T13:29:07;89804.44;;;30.16;26.69
46782;BME280;32541;46.298;11.506;2022-07-03T13:31:33;89804.59;;;30.40;28.99
46782;BME280;32541;46.298;11.506;2022-07-03T13:33:58;89799.47;;;30.20;27.27
46782;BME280;32541;46.298;11.506;2022-07-03T13:36:25;89797.38;;;30.23;27.16
46782;BME280;32541;46.298;11.506;2022-07-03T13:38:51;89805.81;;;30.09;29.08
46782;BME280;32541;46.298;11.506;2022-07-03T13:41:16;89806.53;;;30.09;28.73
46782;BME280;32541;46.298;11.506;2022-07-03T13:43:44;89807.44;;;30.50;28.93
46782;BME280;32541;46.298;11.506;2022-07-03T13:46:10;89804.75;;;30.93;29.57
46782;BME280;32541;46.298;11.506;2022-07-03T13:48:35;89806.25;;;31.24;30.71
46782;BME280;32541;46.298;11.506;2022-07-03T13:51:01;89805.53;;;31.25;26.53
46782;BME280;32541;46.298;11.506;2022-07-03T13:53:27;89801.25;;;31.06;27.96
46782;BME280;32541;46.298;11.506;2022-07-03T13:55:55;89809.53;;;30.40;27.53
46782;BME280;32541;46.298;11.506;2022-07-03T13:58:21;89811.59;;;30.31;28.95
46782;BME280;32541;46.298;11.506;2022-07-03T14:00:46;89819.91;;;29.95;28.49
46782;BME280;32541;46.298;11.506;2022-07-03T14:03:12;89812.38;;;30.40;30.20
46782;BME280;32541;46.298;11.506;2022-07-03T14:05:37;89803.28;;;30.75;30.24
46782;BME280;32541;46.298;11.506;2022-07-03T14:08:03;89793.38;;;30.84;30.53
46782;BME280;32541;46.298;11.506;2022-07-03T14:10:29;89815.06;;;30.15;30.93
46782;BME280;32541;46.298;11.506;2022-07-03T14:12:54;89812.88;;;30.06;32.31
46782;BME280;32541;46.298;11.506;2022-07-03T14:15:20;89818.66;;;30.26;31.55
46782;BME280;32541;46.298;11.506;2022-07-03T14:17:45;89798.00;;;30.07;33.10
46782;BME280;32541;46.298;11.506;2022-07-03T14:20:11;89793.28;;;30.54;32.67
46782;BME280;32541;46.298;11.506;2022-07-03T14:22:38;89804.03;;;30.82;31.81
46782;BME280;32541;46.298;11.506;2022-07-03T14:25:03;89805.44;;;30.83;32.39
46782;BME280;32541;46.298;11.506;2022-07-03T14:27:29;89810.31;;;30.54;33.05
46782;BME280;32541;46.298;11.506;2022-07-03T14:30:13;89807.44;;;30.46;33.35